Airfield :
LOGIN :

Register | Disclaimer

   EN    FR    IT 

 










Legend :    VFR   Marginal VFR   IFR   Intensive IFR   Very Intensive IFR
Visi :
Ceiling :
>= 8 km
>= 3000ft
5 to 8 km
1000 to 3000 ft
1500m to 5 km
500 to 1000 ft
800 to 1500m
200 to 500 ft
< 800m
< 200 ft
Symbols :   Thunderstorms  Fog  Heavy snow  Heavy precipitations  Wind > 20 kt
SIGMETs :     Misc.  Thunderstorms  Icing  Turbulence  Mountain Waves  Volcanic Ashes






- Airport Elevation : 157 ft
- IATA code : SXF


EDDB - Berlin Schönefeld

CURRENT METAR :
  • 250750Z 26007KT 8000 -RA BKN016 03/02 Q1032 TEMPO BKN014

EXPIRED METARs :
  • 250720Z 27005KT 8000 -RA BKN015 03/02 Q1032 TEMPO BKN009
  • 250650Z 27007KT 8000 -RA BKN015 03/02 Q1031 TEMPO BKN009
  • 250620Z 27006KT 8000 -RA BKN016 03/02 Q1031 TEMPO BKN009
  • 250550Z 28005KT 9000 BKN017 03/02 Q1031 TEMPO BKN009
  • 250520Z 29008KT 9000 FEW010 BKN018 03/01 Q1031 TEMPO BKN009

TAF TAF EDDB
Valid from the 25 at 06:00 until the 26 at 06:00 UTC


250500Z 2506/2606 29007KT 7000 FEW008 OVC015
TEMPO 2506/2514 4500 -DZ BKN008
BECMG 2514/2517 OVC012
BECMG 2519/2522 BKN008
TEMPO 2519/2606 3000 -DZ BKN004



MET'MAP, your aeronautical weather chart ! - Copyright ORBIFLY December 2007 - Disclaimer

ORBIFLY MET'MAP TEAM :

Programming & Development : Alexandra Zaïnal
Original concept : Baudouin d'Aumeries
Technical & hardware support : Manuel Goepfert
Assistance : Marc-Olivier Méhu

Contact : metmap@orbifly.com




SOURCES & CREDITS :

   NOAA